createdAt,value
2018-01-18T00:00:27.831Z,0.68
2018-01-18T00:01:37.999Z,0.72
2018-01-18T00:02:48.173Z,0.81
2018-01-18T00:03:58.279Z,0.74
2018-01-18T00:05:08.459Z,0.71
2018-01-18T00:06:18.344Z,0.75
2018-01-18T00:07:28.603Z,0.74
2018-01-18T00:08:38.747Z,0.76
2018-01-18T00:09:48.935Z,0.76
2018-01-18T00:10:59.048Z,0.64
2018-01-18T00:12:08.974Z,0.72
2018-01-18T00:13:19.123Z,0.64
2018-01-18T00:14:29.275Z,0.67
2018-01-18T00:15:39.172Z,0.64
2018-01-18T00:16:49.310Z,0.66
2018-01-18T00:17:59.473Z,0.66
2018-01-18T00:19:09.588Z,0.67
2018-01-18T00:20:19.709Z,0.68
2018-01-18T00:21:29.867Z,0.74
2018-01-18T00:22:39.966Z,0.76
2018-01-18T00:23:50.098Z,0.76
2018-01-18T00:25:00.283Z,0.68
2018-01-18T00:26:10.515Z,0.68
2018-01-18T00:27:20.652Z,0.71
2018-01-18T00:28:30.872Z,0.66
2018-01-18T00:29:41.022Z,0.71
2018-01-18T00:30:50.890Z,0.66
2018-01-18T00:32:01.107Z,0.67
2018-01-18T00:33:10.977Z,0.64
2018-01-18T00:34:21.089Z,0.67
2018-01-18T00:35:31.326Z,0.74
2018-01-18T00:36:41.540Z,0.76
2018-01-18T00:37:51.693Z,0.64
2018-01-18T00:39:01.947Z,0.64
2018-01-18T00:40:12.297Z,0.71
2018-01-18T00:41:22.437Z,0.71
2018-01-18T00:42:32.650Z,0.75
2018-01-18T00:43:42.885Z,0.72
2018-01-18T00:44:53.021Z,0.71
2018-01-18T00:46:03.262Z,0.67
2018-01-18T00:47:13.452Z,0.72
2018-01-18T00:48:23.608Z,0.67
2018-01-18T00:49:33.745Z,0.64
2018-01-18T00:50:43.975Z,0.71
2018-01-18T00:51:54.100Z,0.76
2018-01-18T00:53:04.224Z,0.76
2018-01-18T00:54:14.395Z,0.64
2018-01-18T00:55:24.635Z,0.63
2018-01-18T00:56:34.773Z,0.67
2018-01-18T00:57:44.986Z,0.68
2018-01-18T00:58:55.155Z,0.71
2018-01-18T01:00:05.395Z,0.67
2018-01-18T01:01:15.609Z,0.76
2018-01-18T01:02:25.524Z,0.78
2018-01-18T01:03:35.853Z,0.71
2018-01-18T01:04:45.972Z,0.81
2018-01-18T01:05:56.118Z,0.81
2018-01-18T01:07:06.352Z,0.81
2018-01-18T01:08:16.540Z,0.78
2018-01-18T01:09:26.791Z,0.84
2018-01-18T01:10:36.930Z,0.82
2018-01-18T01:11:47.096Z,0.86
2018-01-18T01:12:57.216Z,0.9
2018-01-18T01:14:07.350Z,0.85
2018-01-18T01:15:17.479Z,0.88
2018-01-18T01:16:27.706Z,0.9
2018-01-18T01:17:37.820Z,0.88
2018-01-18T01:18:47.983Z,0.92
2018-01-18T01:19:58.110Z,0.86
2018-01-18T01:21:08.231Z,0.9
2018-01-18T01:22:18.351Z,0.76
2018-01-18T01:23:28.547Z,0.78
2018-01-18T01:24:38.678Z,0.85
2018-01-18T01:25:48.861Z,0.78
2018-01-18T01:26:58.946Z,0.85
2018-01-18T01:28:08.822Z,0.85
2018-01-18T01:29:19.038Z,0.78
2018-01-18T01:30:29.186Z,0.85
2018-01-18T01:31:39.383Z,0.84
2018-01-18T01:32:49.306Z,0.81
2018-01-18T01:33:59.189Z,0.85
2018-01-18T01:35:09.325Z,0.85
2018-01-18T01:36:19.459Z,0.84
2018-01-18T01:37:29.730Z,0.84
2018-01-18T01:38:39.851Z,0.86
2018-01-18T01:39:49.989Z,0.86
2018-01-18T01:41:00.127Z,0.84
2018-01-18T01:42:10.247Z,0.84
2018-01-18T01:43:21.336Z,0.84
2018-01-18T01:44:31.463Z,0.82
2018-01-18T01:45:42.733Z,0.78
2018-01-18T01:46:52.891Z,0.86
2018-01-18T01:48:03.037Z,0.85
2018-01-18T01:49:13.173Z,0.81
2018-01-18T01:50:23.349Z,0.81
2018-01-18T01:51:33.465Z,0.84
2018-01-18T01:52:43.619Z,0.81
2018-01-18T01:53:53.731Z,0.88
2018-01-18T01:55:03.840Z,0.81
2018-01-18T01:56:13.943Z,0.82
2018-01-18T01:57:24.053Z,0.85
2018-01-18T01:58:34.212Z,0.81
2018-01-18T01:59:44.429Z,0.86
2018-01-18T02:00:54.582Z,0.79
2018-01-18T02:02:04.772Z,0.84
2018-01-18T02:03:14.611Z,0.81
2018-01-18T02:04:24.745Z,0.84
2018-01-18T02:05:34.926Z,0.84
2018-01-18T02:06:45.169Z,0.88
2018-01-18T02:07:55.327Z,0.78
2018-01-18T02:09:05.511Z,0.81
2018-01-18T02:10:15.615Z,0.84
2018-01-18T02:11:25.721Z,0.88
2018-01-18T02:12:35.939Z,0.9
2018-01-18T02:13:46.141Z,0.93
2018-01-18T02:14:56.285Z,0.88
2018-01-18T02:16:06.476Z,0.93
2018-01-18T02:17:16.854Z,0.93
2018-01-18T02:18:26.983Z,0.93
2018-01-18T02:19:37.094Z,0.93
2018-01-18T02:20:47.206Z,0.94
2018-01-18T02:21:57.538Z,0.9
2018-01-18T02:23:07.701Z,0.9
2018-01-18T02:24:17.815Z,0.92
2018-01-18T02:25:27.924Z,0.84
2018-01-18T02:26:38.034Z,0.85
2018-01-18T02:27:48.381Z,0.85
2018-01-18T02:28:58.505Z,0.81
2018-01-18T02:30:08.629Z,0.81
2018-01-18T02:31:18.831Z,0.78
2018-01-18T02:32:28.980Z,0.84
2018-01-18T02:33:39.324Z,0.88
2018-01-18T02:34:48.811Z,0.82
2018-01-18T02:35:58.937Z,0.78
2018-01-18T02:37:09.116Z,0.74
2018-01-18T02:38:19.257Z,0.84
2018-01-18T02:39:29.457Z,0.85
2018-01-18T02:40:39.610Z,0.76
2018-01-18T02:41:49.786Z,0.81
2018-01-18T02:42:59.887Z,0.81
2018-01-18T02:44:10.009Z,0.82
2018-01-18T02:45:20.173Z,0.79
2018-01-18T02:46:30.358Z,0.72
2018-01-18T02:47:40.583Z,0.78
2018-01-18T02:48:50.758Z,0.72
2018-01-18T02:50:01.002Z,0.74
2018-01-18T02:51:11.157Z,0.75
2018-01-18T02:52:21.021Z,0.76
2018-01-18T02:53:31.157Z,0.76
2018-01-18T02:54:41.308Z,0.72
2018-01-18T02:55:51.597Z,0.66
2018-01-18T02:57:01.755Z,0.75
2018-01-18T02:58:11.963Z,0.68
2018-01-18T02:59:23.192Z,0.71
2018-01-18T03:00:33.372Z,0.71
2018-01-18T03:01:43.648Z,0.68
2018-01-18T03:02:53.815Z,0.76
2018-01-18T03:04:03.676Z,0.76
2018-01-18T03:05:13.901Z,0.74
2018-01-18T03:06:24.053Z,0.76
2018-01-18T03:07:34.367Z,0.72
2018-01-18T03:08:44.539Z,0.76
2018-01-18T03:09:54.725Z,0.68
2018-01-18T03:11:04.950Z,0.78
2018-01-18T03:12:15.120Z,0.64
2018-01-18T03:13:25.244Z,0.66
2018-01-18T03:14:35.385Z,0.67
2018-01-18T03:15:45.496Z,0.66
2018-01-18T03:16:55.673Z,0.67
2018-01-18T03:18:05.885Z,0.64
2018-01-18T03:19:16.019Z,0.57
2018-01-18T03:20:26.133Z,0.58
2018-01-18T03:21:36.265Z,0.58
2018-01-18T03:22:46.405Z,0.57
2018-01-18T03:23:56.437Z,0.57
2018-01-18T03:25:06.662Z,0.48
2018-01-18T03:26:16.908Z,0.42
2018-01-18T03:27:27.171Z,0.4
2018-01-18T03:28:37.390Z,0.46
2018-01-18T03:29:47.512Z,0.36
2018-01-18T03:30:57.609Z,0.28
2018-01-18T03:32:07.725Z,0.33
2018-01-18T03:33:17.844Z,0.24
2018-01-18T03:34:27.959Z,0.27
2018-01-18T03:35:38.054Z,0.12
2018-01-18T03:36:48.165Z,0.22
2018-01-18T03:37:58.263Z,0.06
2018-01-18T03:39:08.408Z,0.14
2018-01-18T03:40:18.582Z,0.14
2018-01-18T03:41:28.804Z,0.06
2018-01-18T03:42:38.644Z,0.09
2018-01-18T03:43:48.820Z,0.09
2018-01-18T03:44:59.041Z,0.08
2018-01-18T03:46:10.144Z,0.09
2018-01-18T03:47:20.247Z,0.08
2018-01-18T03:48:30.397Z,0.2
2018-01-18T03:49:40.136Z,0.17
2018-01-18T03:50:50.282Z,0.12
2018-01-18T03:52:00.391Z,0.12
2018-01-18T03:53:10.506Z,0.14
2018-01-18T03:54:20.634Z,0.17
2018-01-18T03:55:30.747Z,0.16
2018-01-18T03:56:40.877Z,0.12
2018-01-18T03:57:51.080Z,0.21
2018-01-18T03:59:01.224Z,0.2
2018-01-18T04:00:11.378Z,0.05
2018-01-18T04:01:21.534Z,0.03
2018-01-18T04:02:31.723Z,0.03
2018-01-18T04:03:41.854Z,0.09
2018-01-18T04:04:51.961Z,0.09
2018-01-18T04:06:02.207Z,0.12
2018-01-18T04:07:12.308Z,0.03
2018-01-18T04:08:22.458Z,0.14
2018-01-18T04:09:32.574Z,0.01
2018-01-18T04:10:42.812Z,0.03
2018-01-18T04:11:53.012Z,0.06
2018-01-18T04:13:04.096Z,0.06
2018-01-18T04:14:14.210Z,0.06
2018-01-18T04:15:24.368Z,0.08
2018-01-18T04:16:34.529Z,0.05
2018-01-18T04:17:44.709Z,0.03
2018-01-18T04:18:54.575Z,0.06
2018-01-18T04:20:04.698Z,-0.01
2018-01-18T04:21:14.897Z,-0.09
2018-01-18T04:22:25.016Z,-0.06
2018-01-18T04:23:35.114Z,-0.01
2018-01-18T04:24:45.028Z,0.05
2018-01-18T04:25:55.307Z,0.01
2018-01-18T04:27:05.403Z,-0.06
2018-01-18T04:28:15.287Z,-0.01
2018-01-18T04:29:25.426Z,0.05
2018-01-18T04:30:35.594Z,-0.02
2018-01-18T04:31:45.709Z,0.05
2018-01-18T04:32:55.833Z,-0.04
2018-01-18T04:34:05.992Z,-0.01
2018-01-18T04:35:16.224Z,0.06
2018-01-18T04:36:26.361Z,0.05
2018-01-18T04:37:36.541Z,0.01
2018-01-18T04:38:46.545Z,0.06
2018-01-18T04:39:56.705Z,0.06
2018-01-18T04:41:06.797Z,0.01
2018-01-18T04:42:16.929Z,0.06
2018-01-18T04:43:27.060Z,0.12
2018-01-18T04:44:37.419Z,0.06
2018-01-18T04:45:47.541Z,0.05
2018-01-18T04:46:57.820Z,0.12
2018-01-18T04:48:08.060Z,0.01
2018-01-18T04:49:18.177Z,0.03
2018-01-18T04:50:28.297Z,0.03
2018-01-18T04:51:38.400Z,0.08
2018-01-18T04:52:48.518Z,0.09
2018-01-18T04:53:58.667Z,0.08
2018-01-18T04:55:08.831Z,0.14
2018-01-18T04:56:19.139Z,0.14
2018-01-18T04:57:29.265Z,0.09
2018-01-18T04:58:39.626Z,0.11
2018-01-18T04:59:49.744Z,0.17
2018-01-18T05:00:59.859Z,0.16
2018-01-18T05:02:09.965Z,0.14
2018-01-18T05:03:19.953Z,0.2
2018-01-18T05:04:30.117Z,0.17
2018-01-18T05:05:40.298Z,0.14
2018-01-18T05:06:50.404Z,0.16
2018-01-18T05:08:00.506Z,0.16
2018-01-18T05:09:10.657Z,0.11
2018-01-18T05:10:20.259Z,0.21
2018-01-18T05:11:30.396Z,0.09
2018-01-18T05:12:40.501Z,0.05
2018-01-18T05:13:50.551Z,0.08
2018-01-18T05:15:00.776Z,0.05
2018-01-18T05:16:10.983Z,0.12
2018-01-18T05:17:21.120Z,0.06
2018-01-18T05:18:31.604Z,0.11
2018-01-18T05:19:41.697Z,0.11
2018-01-18T05:20:51.848Z,0.09
2018-01-18T05:22:02.075Z,0.09
2018-01-18T05:23:12.280Z,0.09
2018-01-18T05:24:22.525Z,0.08
2018-01-18T05:25:32.722Z,0.06
2018-01-18T05:26:42.966Z,0.12
2018-01-18T05:27:53.183Z,0.12
2018-01-18T05:29:03.388Z,0.2
2018-01-18T05:30:13.267Z,0.17
2018-01-18T05:31:23.405Z,0.22
2018-01-18T05:32:33.555Z,0.25
2018-01-18T05:33:43.790Z,0.24
2018-01-18T05:34:53.954Z,0.21
2018-01-18T05:36:04.165Z,0.2
2018-01-18T05:37:14.324Z,0.22
2018-01-18T05:38:24.467Z,0.2
2018-01-18T05:39:34.581Z,0.27
2018-01-18T05:40:44.723Z,0.24
2018-01-18T05:41:54.914Z,0.21
2018-01-18T05:43:05.136Z,0.22
2018-01-18T05:44:15.337Z,0.21
2018-01-18T05:45:25.554Z,0.21
2018-01-18T05:46:35.708Z,0.35
2018-01-18T05:47:45.925Z,0.28
2018-01-18T05:48:56.047Z,0.31
2018-01-18T05:50:06.162Z,0.3
2018-01-18T05:51:16.287Z,0.27
2018-01-18T05:52:26.450Z,0.31
2018-01-18T05:53:36.552Z,0.28
2018-01-18T05:54:46.668Z,0.33
2018-01-18T05:55:57.012Z,0.43
2018-01-18T05:57:07.158Z,0.33
2018-01-18T05:58:17.290Z,0.3
2018-01-18T05:59:27.445Z,0.35
2018-01-18T06:00:37.547Z,0.38
2018-01-18T06:01:47.692Z,0.39
2018-01-18T06:02:57.853Z,0.43
2018-01-18T06:04:08.082Z,0.4
2018-01-18T06:05:18.411Z,0.48
2018-01-18T06:06:28.646Z,0.48
2018-01-18T06:07:38.822Z,0.48
2018-01-18T06:08:49.004Z,0.43
2018-01-18T06:09:59.197Z,0.48
2018-01-18T06:11:09.433Z,0.53
2018-01-18T06:12:19.317Z,0.6
2018-01-18T06:13:29.445Z,0.54
2018-01-18T06:14:39.585Z,0.54
2018-01-18T06:15:49.743Z,0.53
2018-01-18T06:17:00.028Z,0.58
2018-01-18T06:18:10.254Z,0.63
2018-01-18T06:19:20.443Z,0.57
2018-01-18T06:20:30.620Z,0.6
2018-01-18T06:21:40.502Z,0.67
2018-01-18T06:22:50.662Z,0.6
2018-01-18T06:24:00.505Z,0.63
2018-01-18T06:25:10.382Z,0.67
2018-01-18T06:26:20.506Z,0.78
2018-01-18T06:27:30.675Z,0.68
2018-01-18T06:28:40.836Z,0.64
2018-01-18T06:29:50.701Z,0.66
2018-01-18T06:31:00.878Z,0.64
2018-01-18T06:32:11.019Z,0.71
2018-01-18T06:33:21.152Z,0.71
2018-01-18T06:34:31.399Z,0.76
2018-01-18T06:35:41.289Z,0.72
2018-01-18T06:36:51.167Z,0.66
2018-01-18T06:38:01.339Z,0.71
2018-01-18T06:39:11.454Z,0.67
2018-01-18T06:40:21.582Z,0.71
2018-01-18T06:41:31.721Z,0.71
2018-01-18T06:42:42.007Z,0.75
2018-01-18T06:43:52.232Z,0.68
2018-01-18T06:45:02.438Z,0.76
2018-01-18T06:46:12.551Z,0.67
2018-01-18T06:47:22.665Z,0.76
2018-01-18T06:48:32.780Z,0.66
2018-01-18T06:49:42.956Z,0.66
2018-01-18T06:50:53.135Z,0.66
2018-01-18T06:52:03.265Z,0.68
2018-01-18T06:53:13.070Z,0.67
2018-01-18T06:54:23.226Z,0.66
2018-01-18T06:55:33.426Z,0.67
2018-01-18T06:56:43.364Z,0.72
2018-01-18T06:57:53.476Z,0.66
2018-01-18T06:59:03.641Z,0.63
2018-01-18T07:00:13.811Z,0.72
2018-01-18T07:01:23.908Z,0.64
2018-01-18T07:02:34.045Z,0.6
2018-01-18T07:03:44.170Z,0.72
2018-01-18T07:04:54.334Z,0.63
2018-01-18T07:06:04.505Z,0.67
2018-01-18T07:07:14.695Z,0.57
2018-01-18T07:08:24.557Z,0.6
2018-01-18T07:09:34.776Z,0.63
2018-01-18T07:10:45.000Z,0.56
2018-01-18T07:11:54.914Z,0.58
2018-01-18T07:13:05.030Z,0.66
2018-01-18T07:14:15.154Z,0.56
2018-01-18T07:15:25.284Z,0.58
2018-01-18T07:16:35.525Z,0.68
2018-01-18T07:17:45.733Z,0.67
2018-01-18T07:18:55.966Z,0.68
2018-01-18T07:20:06.216Z,0.66
2018-01-18T07:21:16.330Z,0.61
2018-01-18T07:22:26.473Z,0.6
2018-01-18T07:23:36.599Z,0.57
2018-01-18T07:24:46.741Z,0.6
2018-01-18T07:25:57.091Z,0.53
2018-01-18T07:27:07.201Z,0.56
2018-01-18T07:28:17.350Z,0.6
2018-01-18T07:29:27.496Z,0.63
2018-01-18T07:30:37.426Z,0.6
2018-01-18T07:31:47.277Z,0.53
2018-01-18T07:32:57.397Z,0.53
2018-01-18T07:34:07.393Z,0.5
2018-01-18T07:35:17.659Z,0.56
2018-01-18T07:36:27.882Z,0.49
2018-01-18T07:37:38.144Z,0.49
2018-01-18T07:38:48.304Z,0.4
2018-01-18T07:39:58.473Z,0.38
2018-01-18T07:41:08.686Z,0.43
2018-01-18T07:42:18.547Z,0.39
2018-01-18T07:43:28.713Z,0.39
2018-01-18T07:44:38.826Z,0.39
2018-01-18T07:45:48.947Z,0.31
2018-01-18T07:46:59.053Z,0.31
2018-01-18T07:48:09.205Z,0.38
2018-01-18T07:49:19.350Z,0.27
2018-01-18T07:50:29.608Z,0.17
2018-01-18T07:51:39.761Z,0.06
2018-01-18T07:52:49.908Z,0.06
2018-01-18T07:54:00.175Z,0.09
2018-01-18T07:55:10.434Z,0.14
2018-01-18T07:56:20.569Z,0.11
2018-01-18T07:57:30.919Z,0.05
2018-01-18T07:58:41.144Z,0.08
2018-01-18T07:59:51.365Z,0.08
2018-01-18T08:01:01.674Z,-0.06
2018-01-18T08:02:11.809Z,0.02
2018-01-18T08:03:21.689Z,-0.01
2018-01-18T08:04:31.797Z,-0.01
2018-01-18T08:05:41.752Z,-0.04
2018-01-18T08:06:51.971Z,-0.07
2018-01-18T08:08:02.069Z,-0.06
2018-01-18T08:09:12.230Z,-0.15
2018-01-18T08:10:22.451Z,-0.1
2018-01-18T08:11:32.624Z,-0.19
2018-01-18T08:12:42.469Z,-0.19
2018-01-18T08:13:52.579Z,-0.33
2018-01-18T08:15:02.727Z,-0.28
2018-01-18T08:16:12.847Z,-0.27
2018-01-18T08:17:22.985Z,-0.28
2018-01-18T08:18:33.089Z,-0.31
2018-01-18T08:19:43.224Z,-0.3
2018-01-18T08:20:53.422Z,-0.34
2018-01-18T08:22:03.590Z,-0.28
2018-01-18T08:23:13.810Z,-0.34
2018-01-18T08:24:23.974Z,-0.31
2018-01-18T08:25:34.235Z,-0.3
2018-01-18T08:26:44.451Z,-0.3
2018-01-18T08:27:54.295Z,-0.3
2018-01-18T08:29:04.424Z,-0.37
2018-01-18T08:30:14.683Z,-0.22
2018-01-18T08:31:24.848Z,-0.2
2018-01-18T08:32:34.723Z,-0.22
2018-01-18T08:33:44.854Z,-0.22
2018-01-18T08:34:54.904Z,-0.27
2018-01-18T08:36:05.027Z,-0.2
2018-01-18T08:37:14.977Z,-0.13
2018-01-18T08:38:25.065Z,-0.07
2018-01-18T08:39:35.214Z,-0.12
2018-01-18T08:40:45.334Z,-0.13
2018-01-18T08:41:55.449Z,-0.07
2018-01-18T08:43:05.628Z,-0.15
2018-01-18T08:44:15.889Z,-0.13
2018-01-18T08:45:26.068Z,-0.09
2018-01-18T08:46:36.271Z,-0.13
2018-01-18T08:47:46.499Z,-0.02
2018-01-18T08:48:56.726Z,-0.04
2018-01-18T08:50:06.907Z,-0.01
2018-01-18T08:51:17.172Z,-0.16
2018-01-18T08:52:27.394Z,-0.02
2018-01-18T08:53:37.658Z,-0.06
2018-01-18T08:54:47.881Z,-0.07
2018-01-18T08:55:58.091Z,-0.02
2018-01-18T08:57:08.384Z,-0.06
2018-01-18T08:58:18.539Z,-0.09
2018-01-18T08:59:28.748Z,-0.01
2018-01-18T09:00:38.868Z,0.01
2018-01-18T09:01:49.036Z,0.06
2018-01-18T09:02:59.189Z,-0.02
2018-01-18T09:04:09.128Z,-0.02
2018-01-18T09:05:19.246Z,0.03
2018-01-18T09:06:29.495Z,0.05
2018-01-18T09:07:39.642Z,0.06
2018-01-18T09:08:49.735Z,0.11
2018-01-18T09:09:59.902Z,0.05
2018-01-18T09:11:10.040Z,0.16
2018-01-18T09:12:20.208Z,0.09
2018-01-18T09:13:30.454Z,0.22
2018-01-18T09:14:40.693Z,0.14
2018-01-18T09:15:50.935Z,0.17
2018-01-18T09:17:01.150Z,0.14
2018-01-18T09:18:11.336Z,0.22
2018-01-18T09:19:21.522Z,0.27
2018-01-18T09:20:31.796Z,0.2
2018-01-18T09:21:42.057Z,0.24
2018-01-18T09:22:52.237Z,0.24
2018-01-18T09:24:02.418Z,0.24
2018-01-18T09:25:12.687Z,0.21
2018-01-18T09:26:22.917Z,0.22
2018-01-18T09:27:33.096Z,0.2
2018-01-18T09:28:43.342Z,0.16
2018-01-18T09:29:53.510Z,0.08
2018-01-18T09:31:03.703Z,0.17
2018-01-18T09:32:14.011Z,0.11
2018-01-18T09:33:24.213Z,0.08
2018-01-18T09:34:35.288Z,0.12
2018-01-18T09:35:45.394Z,0.03
2018-01-18T09:36:55.510Z,0.09
2018-01-18T09:38:05.661Z,0.14
2018-01-18T09:39:15.794Z,0.14
2018-01-18T09:40:26.036Z,0.16
2018-01-18T09:41:36.207Z,0.2
2018-01-18T09:42:46.440Z,0.24
2018-01-18T09:43:56.601Z,0.31
2018-01-18T09:45:06.833Z,0.28
2018-01-18T09:46:17.036Z,0.33
2018-01-18T09:47:27.180Z,0.28
2018-01-18T09:48:37.284Z,0.4
2018-01-18T09:49:47.446Z,0.39
2018-01-18T09:50:57.614Z,0.46
2018-01-18T09:52:07.546Z,0.45
2018-01-18T09:53:17.661Z,0.53
2018-01-18T09:54:27.834Z,0.49
2018-01-18T09:55:38.180Z,0.48
2018-01-18T09:56:48.289Z,0.6
2018-01-18T09:57:58.414Z,0.56
2018-01-18T09:59:08.564Z,0.57
2018-01-18T10:00:18.799Z,0.5
2018-01-18T10:01:28.986Z,0.61
2018-01-18T10:02:39.090Z,0.68
2018-01-18T10:03:49.249Z,0.71
2018-01-18T10:04:59.367Z,0.64
2018-01-18T10:06:09.491Z,0.68
2018-01-18T10:07:19.671Z,0.76
2018-01-18T10:08:29.889Z,0.68
2018-01-18T10:09:39.748Z,0.79
2018-01-18T10:10:49.855Z,0.68
2018-01-18T10:12:00.012Z,0.74
2018-01-18T10:13:10.241Z,0.71
2018-01-18T10:14:20.605Z,0.82
2018-01-18T10:15:30.994Z,0.81
2018-01-18T10:16:41.108Z,0.86
2018-01-18T10:17:51.255Z,0.88
2018-01-18T10:19:01.436Z,0.9
2018-01-18T10:20:11.574Z,0.85
2018-01-18T10:21:21.785Z,0.97
2018-01-18T10:22:32.035Z,1.03
2018-01-18T10:23:42.204Z,1.03
2018-01-18T10:24:52.432Z,1.15
2018-01-18T10:26:02.592Z,1.12
2018-01-18T10:27:12.968Z,1.14
2018-01-18T10:28:23.102Z,1.17
2018-01-18T10:29:33.236Z,1.18
2018-01-18T10:30:43.418Z,1.2
2018-01-18T10:31:53.550Z,1.17
2018-01-18T10:33:03.453Z,1.22
2018-01-18T10:34:13.570Z,1.29
2018-01-18T10:35:23.683Z,1.33
2018-01-18T10:36:33.813Z,1.35
2018-01-18T10:37:43.950Z,1.43
2018-01-18T10:38:54.093Z,1.57
2018-01-18T10:40:05.297Z,1.54
2018-01-18T10:41:15.477Z,1.5
2018-01-18T10:42:25.658Z,1.51
2018-01-18T10:43:35.778Z,1.73
2018-01-18T10:44:45.916Z,1.9
2018-01-18T10:45:55.820Z,2.05
2018-01-18T10:47:06.276Z,2.06
2018-01-18T10:48:16.414Z,2.15
2018-01-18T10:49:26.665Z,2.21
2018-01-18T10:50:36.905Z,2.21
2018-01-18T10:51:47.197Z,2.23
2018-01-18T10:52:57.464Z,2.37
2018-01-18T10:54:07.653Z,2.42
2018-01-18T10:55:17.806Z,2.41
2018-01-18T10:56:28.099Z,2.36
2018-01-18T10:57:38.275Z,2.36
2018-01-18T10:58:48.494Z,2.51
2018-01-18T10:59:58.819Z,2.51
2018-01-18T11:01:08.992Z,2.63
2018-01-18T11:02:19.183Z,2.6
2018-01-18T11:03:29.385Z,2.66
2018-01-18T11:04:39.652Z,2.63
2018-01-18T11:05:49.858Z,2.74
2018-01-18T11:07:00.080Z,2.77
2018-01-18T11:08:10.270Z,2.69
2018-01-18T11:09:20.478Z,2.79
2018-01-18T11:10:30.625Z,2.77
2018-01-18T11:11:41.697Z,2.73
2018-01-18T11:12:51.582Z,2.73
2018-01-18T11:14:01.469Z,2.77
2018-01-18T11:15:11.674Z,2.73
2018-01-18T11:16:21.919Z,2.71
2018-01-18T11:17:31.868Z,2.78
2018-01-18T11:18:41.985Z,2.81
2018-01-18T11:19:52.130Z,2.82
2018-01-18T11:21:02.315Z,2.89
2018-01-18T11:22:12.498Z,3.06
2018-01-18T11:23:22.382Z,3.07
2018-01-18T11:24:32.493Z,3.1
2018-01-18T11:25:42.627Z,3.15
2018-01-18T11:26:52.812Z,3.21
2018-01-18T11:28:03.060Z,3.19
2018-01-18T11:29:13.215Z,3.13
2018-01-18T11:30:23.472Z,3.18
2018-01-18T11:31:33.720Z,3.22
2018-01-18T11:32:43.958Z,3.19
2018-01-18T11:33:54.165Z,3.1
2018-01-18T11:35:04.420Z,3.11
2018-01-18T11:36:14.605Z,3.07
2018-01-18T11:37:24.770Z,3.07
2018-01-18T11:38:35.039Z,3.11
2018-01-18T11:39:45.255Z,3.1
2018-01-18T11:40:55.538Z,3.19
2018-01-18T11:42:06.703Z,3.57
2018-01-18T11:43:16.866Z,3.95
2018-01-18T11:44:27.048Z,3.95
2018-01-18T11:45:36.959Z,4.11
2018-01-18T11:46:48.050Z,4.09
2018-01-18T11:47:58.181Z,4.19
2018-01-18T11:49:08.404Z,4.43
2018-01-18T11:50:18.727Z,4.71
2018-01-18T11:51:28.981Z,4.83
2018-01-18T11:52:39.211Z,5.06
2018-01-18T11:53:49.380Z,5.28
2018-01-18T11:54:59.549Z,5.5
2018-01-18T11:56:09.673Z,5.77
2018-01-18T11:57:19.803Z,5.72
2018-01-18T11:58:29.962Z,5.71
2018-01-18T11:59:40.109Z,5.79
2018-01-18T12:00:50.241Z,5.56
2018-01-18T12:02:00.144Z,5.4
2018-01-18T12:03:10.293Z,5.24
2018-01-18T12:04:20.437Z,5.13
2018-01-18T12:05:30.793Z,4.99
2018-01-18T12:06:40.926Z,4.8
2018-01-18T12:07:51.152Z,4.7
2018-01-18T12:09:01.312Z,4.67
2018-01-18T12:10:11.171Z,4.65
2018-01-18T12:11:21.338Z,4.49
2018-01-18T12:12:31.496Z,4.49
2018-01-18T12:13:41.724Z,4.41
2018-01-18T12:14:51.977Z,4.38
2018-01-18T12:16:02.199Z,4.31
2018-01-18T12:17:12.110Z,4.3
2018-01-18T12:18:22.258Z,4.3
2018-01-18T12:19:32.385Z,4.2
2018-01-18T12:20:42.583Z,4.25
2018-01-18T12:21:52.816Z,4.27
2018-01-18T12:23:02.953Z,4.2
2018-01-18T12:24:13.154Z,4.16
2018-01-18T12:25:22.953Z,4.2
2018-01-18T12:26:33.138Z,4.36
2018-01-18T12:27:43.409Z,4.34
2018-01-18T12:28:53.692Z,4.27
2018-01-18T12:30:03.601Z,4.34
2018-01-18T12:31:13.731Z,4.33
2018-01-18T12:32:23.949Z,4.27
2018-01-18T12:33:34.092Z,4.31
2018-01-18T12:34:44.244Z,4.3
2018-01-18T12:35:54.156Z,4.3
2018-01-18T12:37:04.283Z,4.33
2018-01-18T12:38:14.445Z,4.46
2018-01-18T12:39:24.642Z,4.43
2018-01-18T12:40:34.801Z,4.41
2018-01-18T12:41:45.027Z,4.47
2018-01-18T12:42:55.503Z,4.49
2018-01-18T12:44:05.662Z,4.53
2018-01-18T12:45:15.810Z,4.55
2018-01-18T12:46:26.003Z,4.63
2018-01-18T12:47:36.202Z,4.67
2018-01-18T12:48:46.455Z,4.7
2018-01-18T12:49:56.648Z,4.6
2018-01-18T12:51:06.907Z,4.68
2018-01-18T12:52:16.761Z,4.59
2018-01-18T12:53:26.914Z,4.71
2018-01-18T12:54:37.068Z,4.74
2018-01-18T12:55:47.281Z,4.75
2018-01-18T12:56:57.179Z,4.8
2018-01-18T12:58:07.392Z,4.89
2018-01-18T12:59:17.546Z,4.95
2018-01-18T13:00:27.730Z,5.03
2018-01-18T13:01:37.908Z,5.03
2018-01-18T13:02:48.218Z,4.93
2018-01-18T13:03:58.446Z,4.93
2018-01-18T13:05:08.644Z,4.93
2018-01-18T13:06:18.861Z,4.8
2018-01-18T13:07:29.044Z,4.8
2018-01-18T13:08:39.220Z,4.83
2018-01-18T13:09:49.478Z,4.71
2018-01-18T13:10:59.647Z,4.74
2018-01-18T13:12:09.879Z,4.67
2018-01-18T13:13:19.753Z,4.57
2018-01-18T13:14:29.897Z,4.6
2018-01-18T13:15:40.020Z,4.47
2018-01-18T13:16:49.885Z,4.46
2018-01-18T13:18:00.052Z,4.4
2018-01-18T13:19:10.273Z,4.38
2018-01-18T13:20:20.506Z,4.33
2018-01-18T13:21:30.679Z,4.28
2018-01-18T13:22:41.013Z,4.23
2018-01-18T13:23:51.173Z,4.23
2018-01-18T13:25:01.427Z,4.13
2018-01-18T13:26:11.681Z,4.15
2018-01-18T13:27:21.877Z,4.04
2018-01-18T13:28:32.991Z,4.09
2018-01-18T13:29:43.173Z,4.12
2018-01-18T13:30:53.407Z,4.11
2018-01-18T13:32:03.667Z,4.12
2018-01-18T13:33:13.882Z,4.04
2018-01-18T13:34:24.098Z,3.97
2018-01-18T13:35:34.303Z,4.03
2018-01-18T13:36:44.559Z,3.95
2018-01-18T13:37:54.699Z,3.98
2018-01-18T13:39:04.864Z,3.9
2018-01-18T13:40:15.112Z,3.85
2018-01-18T13:41:25.445Z,3.75
2018-01-18T13:42:35.732Z,3.69
2018-01-18T13:43:45.984Z,3.73
2018-01-18T13:44:56.158Z,3.68
2018-01-18T13:46:06.406Z,3.55
2018-01-18T13:47:16.608Z,3.36
2018-01-18T13:48:26.787Z,3.42
2018-01-18T13:49:37.028Z,3.25
2018-01-18T13:50:47.171Z,3.24
2018-01-18T13:51:57.422Z,3.22
2018-01-18T13:53:07.598Z,3.15
2018-01-18T13:54:17.949Z,3.06
2018-01-18T13:55:28.202Z,3.07
2018-01-18T13:56:38.434Z,2.99
2018-01-18T13:57:48.585Z,3.02
2018-01-18T13:58:58.749Z,2.91
2018-01-18T14:00:09.033Z,2.91
2018-01-18T14:01:19.193Z,2.88
2018-01-18T14:02:29.471Z,2.81
2018-01-18T14:03:39.781Z,2.84
2018-01-18T14:04:49.965Z,2.79
2018-01-18T14:06:00.189Z,2.79
2018-01-18T14:07:10.427Z,2.73
2018-01-18T14:08:20.696Z,2.74
2018-01-18T14:09:30.860Z,2.77
2018-01-18T14:10:41.046Z,2.71
2018-01-18T14:11:51.183Z,2.74
2018-01-18T14:13:01.434Z,2.73
2018-01-18T14:14:11.720Z,2.74
2018-01-18T14:15:21.911Z,2.74
2018-01-18T14:16:32.163Z,2.74
2018-01-18T14:17:42.389Z,2.71
2018-01-18T14:18:52.680Z,2.78
2018-01-18T14:20:02.853Z,2.73
2018-01-18T14:21:13.049Z,2.81
2018-01-18T14:22:23.263Z,2.74
2018-01-18T14:23:33.423Z,2.7
2018-01-18T14:24:43.686Z,2.67
2018-01-18T14:25:53.983Z,2.79
2018-01-18T14:27:04.174Z,2.67
2018-01-18T14:28:14.444Z,2.74
2018-01-18T14:29:24.705Z,2.78
2018-01-18T14:30:34.897Z,2.78
2018-01-18T14:31:45.066Z,2.73
2018-01-18T14:32:55.222Z,2.67
2018-01-18T14:34:05.395Z,2.63
2018-01-18T14:35:15.713Z,2.52
2018-01-18T14:36:25.974Z,2.62
2018-01-18T14:37:36.183Z,2.53
2018-01-18T14:38:46.377Z,2.52
2018-01-18T14:39:56.596Z,2.46
2018-01-18T14:41:06.816Z,2.51
2018-01-18T14:42:17.007Z,2.46
2018-01-18T14:43:27.244Z,2.45
2018-01-18T14:44:37.484Z,2.41
2018-01-18T14:45:47.684Z,2.45
2018-01-18T14:46:57.913Z,2.33
2018-01-18T14:48:08.213Z,2.33
2018-01-18T14:49:18.430Z,2.26
2018-01-18T14:50:28.338Z,2.3
2018-01-18T14:51:38.546Z,2.27
2018-01-18T14:52:48.688Z,2.28
2018-01-18T14:53:58.851Z,2.19
2018-01-18T14:55:09.024Z,2.15
2018-01-18T14:56:18.940Z,2.13
2018-01-18T14:57:29.086Z,2.09
2018-01-18T14:58:39.244Z,2.08
2018-01-18T14:59:49.279Z,2.06
2018-01-18T15:00:59.616Z,2.15
2018-01-18T15:02:09.871Z,2.06
2018-01-18T15:03:20.092Z,2.05
2018-01-18T15:04:30.345Z,2.08
2018-01-18T15:05:40.233Z,2
2018-01-18T15:06:50.397Z,1.97
2018-01-18T15:08:00.546Z,1.87
2018-01-18T15:09:10.720Z,1.84
2018-01-18T15:10:20.873Z,1.8
2018-01-18T15:11:31.060Z,1.84
2018-01-18T15:12:41.314Z,1.74
2018-01-18T15:13:51.513Z,1.73
2018-01-18T15:15:01.690Z,1.76
2018-01-18T15:16:11.975Z,1.79
2018-01-18T15:17:22.149Z,1.8
2018-01-18T15:18:32.321Z,1.77
2018-01-18T15:19:42.724Z,1.79
2018-01-18T15:20:52.868Z,1.8
2018-01-18T15:22:03.064Z,1.7
2018-01-18T15:23:13.489Z,1.73
2018-01-18T15:24:23.652Z,1.84
2018-01-18T15:25:33.812Z,1.8
2018-01-18T15:26:44.019Z,1.8
2018-01-18T15:27:54.167Z,1.79
2018-01-18T15:29:04.097Z,1.92
2018-01-18T15:30:14.298Z,1.92
2018-01-18T15:31:24.565Z,1.82
2018-01-18T15:32:34.797Z,1.85
2018-01-18T15:33:45.027Z,1.92
2018-01-18T15:34:55.188Z,1.92